sensor_id;sensor_type;location;lat;lon;timestamp;P1;durP1;ratioP1;P2;durP2;ratioP2
74344;SDS011;62776;50.518;6.732;2023-07-08T00:01:34;5.43;;;4.93;;
74344;SDS011;62776;50.518;6.732;2023-07-08T00:04:21;4.68;;;4.28;;
74344;SDS011;62776;50.518;6.732;2023-07-08T00:07:10;4.43;;;4.03;;
74344;SDS011;62776;50.518;6.732;2023-07-08T00:09:59;5.55;;;4.28;;
74344;SDS011;62776;50.518;6.732;2023-07-08T00:12:45;5.72;;;5.13;;
74344;SDS011;62776;50.518;6.732;2023-07-08T00:15:41;4.97;;;4.57;;
74344;SDS011;62776;50.518;6.732;2023-07-08T00:18:27;6.10;;;4.45;;
74344;SDS011;62776;50.518;6.732;2023-07-08T00:21:15;5.60;;;5.10;;
74344;SDS011;62776;50.518;6.732;2023-07-08T00:24:04;4.88;;;4.45;;
74344;SDS011;62776;50.518;6.732;2023-07-08T00:26:50;5.85;;;4.68;;
74344;SDS011;62776;50.518;6.732;2023-07-08T00:29:37;5.18;;;3.90;;
74344;SDS011;62776;50.518;6.732;2023-07-08T00:32:23;5.28;;;4.72;;
74344;SDS011;62776;50.518;6.732;2023-07-08T00:35:13;4.60;;;4.20;;
74344;SDS011;62776;50.518;6.732;2023-07-08T00:38:00;8.80;;;5.47;;
74344;SDS011;62776;50.518;6.732;2023-07-08T00:40:51;6.68;;;4.47;;
74344;SDS011;62776;50.518;6.732;2023-07-08T00:43:48;4.72;;;4.30;;
74344;SDS011;62776;50.518;6.732;2023-07-08T00:46:46;5.88;;;5.10;;
74344;SDS011;62776;50.518;6.732;2023-07-08T00:49:50;5.00;;;4.53;;
74344;SDS011;62776;50.518;6.732;2023-07-08T00:55:28;6.15;;;4.75;;
74344;SDS011;62776;50.518;6.732;2023-07-08T00:58:17;5.45;;;4.95;;
74344;SDS011;62776;50.518;6.732;2023-07-08T01:01:08;5.03;;;4.63;;
74344;SDS011;62776;50.518;6.732;2023-07-08T01:04:13;5.72;;;4.43;;
74344;SDS011;62776;50.518;6.732;2023-07-08T01:07:29;5.00;;;4.50;;
74344;SDS011;62776;50.518;6.732;2023-07-08T01:10:20;4.97;;;4.50;;
74344;SDS011;62776;50.518;6.732;2023-07-08T01:13:17;7.20;;;4.95;;
74344;SDS011;62776;50.518;6.732;2023-07-08T01:16:08;5.25;;;4.75;;
74344;SDS011;62776;50.518;6.732;2023-07-08T01:18:54;5.45;;;4.95;;
74344;SDS011;62776;50.518;6.732;2023-07-08T01:21:47;4.80;;;4.25;;
74344;SDS011;62776;50.518;6.732;2023-07-08T01:24:42;6.05;;;4.57;;
74344;SDS011;62776;50.518;6.732;2023-07-08T01:27:31;5.60;;;5.10;;
74344;SDS011;62776;50.518;6.732;2023-07-08T01:30:21;5.13;;;4.68;;
74344;SDS011;62776;50.518;6.732;2023-07-08T01:33:11;4.38;;;4.00;;
74344;SDS011;62776;50.518;6.732;2023-07-08T01:36:03;5.45;;;4.93;;
74344;SDS011;62776;50.518;6.732;2023-07-08T01:38:51;5.75;;;4.90;;
74344;SDS011;62776;50.518;6.732;2023-07-08T01:41:38;5.57;;;4.95;;
74344;SDS011;62776;50.518;6.732;2023-07-08T01:44:29;6.25;;;5.13;;
74344;SDS011;62776;50.518;6.732;2023-07-08T01:47:22;5.55;;;5.05;;
74344;SDS011;62776;50.518;6.732;2023-07-08T01:50:09;6.85;;;5.20;;
74344;SDS011;62776;50.518;6.732;2023-07-08T01:52:57;5.90;;;5.40;;
74344;SDS011;62776;50.518;6.732;2023-07-08T01:55:45;5.32;;;4.68;;
74344;SDS011;62776;50.518;6.732;2023-07-08T01:58:31;5.45;;;4.80;;
74344;SDS011;62776;50.518;6.732;2023-07-08T02:01:20;5.85;;;5.28;;
74344;SDS011;62776;50.518;6.732;2023-07-08T02:04:06;7.05;;;5.03;;
74344;SDS011;62776;50.518;6.732;2023-07-08T02:06:55;5.03;;;4.53;;
74344;SDS011;62776;50.518;6.732;2023-07-08T02:09:46;5.40;;;4.88;;
74344;SDS011;62776;50.518;6.732;2023-07-08T02:12:32;4.78;;;4.38;;
74344;SDS011;62776;50.518;6.732;2023-07-08T02:15:19;5.18;;;4.75;;
74344;SDS011;62776;50.518;6.732;2023-07-08T02:18:06;5.00;;;4.60;;
74344;SDS011;62776;50.518;6.732;2023-07-08T02:20:52;5.78;;;5.20;;
74344;SDS011;62776;50.518;6.732;2023-07-08T02:23:40;5.75;;;5.25;;
74344;SDS011;62776;50.518;6.732;2023-07-08T02:26:27;5.47;;;4.95;;
74344;SDS011;62776;50.518;6.732;2023-07-08T02:29:19;8.75;;;5.10;;
74344;SDS011;62776;50.518;6.732;2023-07-08T02:32:05;5.05;;;4.65;;
74344;SDS011;62776;50.518;6.732;2023-07-08T02:34:52;4.75;;;4.30;;
74344;SDS011;62776;50.518;6.732;2023-07-08T02:37:38;5.07;;;4.68;;
74344;SDS011;62776;50.518;6.732;2023-07-08T02:40:25;4.85;;;4.40;;
74344;SDS011;62776;50.518;6.732;2023-07-08T02:43:11;5.90;;;4.85;;
74344;SDS011;62776;50.518;6.732;2023-07-08T02:46:04;5.13;;;4.57;;
74344;SDS011;62776;50.518;6.732;2023-07-08T02:48:56;5.30;;;4.43;;
74344;SDS011;62776;50.518;6.732;2023-07-08T02:51:43;5.13;;;4.72;;
74344;SDS011;62776;50.518;6.732;2023-07-08T02:54:31;5.32;;;4.70;;
74344;SDS011;62776;50.518;6.732;2023-07-08T02:57:25;5.70;;;5.20;;
74344;SDS011;62776;50.518;6.732;2023-07-08T03:00:11;5.60;;;5.10;;
74344;SDS011;62776;50.518;6.732;2023-07-08T03:03:03;4.80;;;4.40;;
74344;SDS011;62776;50.518;6.732;2023-07-08T03:05:53;6.40;;;5.47;;
74344;SDS011;62776;50.518;6.732;2023-07-08T03:08:42;4.88;;;4.47;;
74344;SDS011;62776;50.518;6.732;2023-07-08T03:11:28;4.72;;;4.30;;
74344;SDS011;62776;50.518;6.732;2023-07-08T03:14:14;7.38;;;4.95;;
74344;SDS011;62776;50.518;6.732;2023-07-08T03:17:02;5.75;;;4.70;;
74344;SDS011;62776;50.518;6.732;2023-07-08T03:19:50;5.25;;;4.80;;
74344;SDS011;62776;50.518;6.732;2023-07-08T03:22:37;6.45;;;5.05;;
74344;SDS011;62776;50.518;6.732;2023-07-08T03:25:23;4.63;;;4.25;;
74344;SDS011;62776;50.518;6.732;2023-07-08T03:28:10;4.95;;;4.55;;
74344;SDS011;62776;50.518;6.732;2023-07-08T03:31:07;4.78;;;4.30;;
74344;SDS011;62776;50.518;6.732;2023-07-08T03:33:56;4.65;;;4.22;;
74344;SDS011;62776;50.518;6.732;2023-07-08T03:36:49;6.55;;;4.97;;
74344;SDS011;62776;50.518;6.732;2023-07-08T03:39:37;5.45;;;4.95;;
74344;SDS011;62776;50.518;6.732;2023-07-08T03:42:23;4.35;;;4.05;;
74344;SDS011;62776;50.518;6.732;2023-07-08T03:45:10;5.50;;;5.00;;
74344;SDS011;62776;50.518;6.732;2023-07-08T03:47:57;5.53;;;4.43;;
74344;SDS011;62776;50.518;6.732;2023-07-08T03:50:45;4.28;;;3.88;;
74344;SDS011;62776;50.518;6.732;2023-07-08T03:53:33;6.28;;;5.13;;
74344;SDS011;62776;50.518;6.732;2023-07-08T03:56:19;5.20;;;4.20;;
74344;SDS011;62776;50.518;6.732;2023-07-08T03:59:06;4.30;;;3.63;;
74344;SDS011;62776;50.518;6.732;2023-07-08T04:01:55;5.55;;;5.00;;
74344;SDS011;62776;50.518;6.732;2023-07-08T04:04:45;4.50;;;4.15;;
74344;SDS011;62776;50.518;6.732;2023-07-08T04:07:33;4.43;;;4.13;;
74344;SDS011;62776;50.518;6.732;2023-07-08T04:10:20;5.13;;;4.50;;
74344;SDS011;62776;50.518;6.732;2023-07-08T04:13:06;4.55;;;3.83;;
74344;SDS011;62776;50.518;6.732;2023-07-08T04:15:55;4.32;;;3.95;;
74344;SDS011;62776;50.518;6.732;2023-07-08T04:18:45;4.25;;;3.88;;
74344;SDS011;62776;50.518;6.732;2023-07-08T04:21:39;5.57;;;5.07;;
74344;SDS011;62776;50.518;6.732;2023-07-08T04:24:31;4.55;;;4.15;;
74344;SDS011;62776;50.518;6.732;2023-07-08T04:27:23;4.57;;;4.18;;
74344;SDS011;62776;50.518;6.732;2023-07-08T04:30:19;5.57;;;4.82;;
74344;SDS011;62776;50.518;6.732;2023-07-08T04:33:13;4.18;;;3.85;;
74344;SDS011;62776;50.518;6.732;2023-07-08T04:36:00;5.07;;;4.57;;
74344;SDS011;62776;50.518;6.732;2023-07-08T04:38:47;4.28;;;3.88;;
74344;SDS011;62776;50.518;6.732;2023-07-08T04:41:35;5.78;;;4.15;;
74344;SDS011;62776;50.518;6.732;2023-07-08T04:44:25;4.17;;;3.80;;
74344;SDS011;62776;50.518;6.732;2023-07-08T04:47:13;5.88;;;4.10;;
74344;SDS011;62776;50.518;6.732;2023-07-08T04:49:59;4.45;;;4.05;;
74344;SDS011;62776;50.518;6.732;2023-07-08T04:52:45;4.78;;;4.00;;
74344;SDS011;62776;50.518;6.732;2023-07-08T04:55:34;4.47;;;4.07;;
74344;SDS011;62776;50.518;6.732;2023-07-08T04:58:21;5.43;;;3.83;;
74344;SDS011;62776;50.518;6.732;2023-07-08T05:01:09;4.03;;;3.63;;
74344;SDS011;62776;50.518;6.732;2023-07-08T05:03:55;3.80;;;3.40;;
74344;SDS011;62776;50.518;6.732;2023-07-08T05:06:41;4.15;;;3.75;;
74344;SDS011;62776;50.518;6.732;2023-07-08T05:09:28;5.72;;;4.18;;
74344;SDS011;62776;50.518;6.732;2023-07-08T05:12:20;4.97;;;4.50;;
74344;SDS011;62776;50.518;6.732;2023-07-08T05:15:08;4.90;;;3.85;;
74344;SDS011;62776;50.518;6.732;2023-07-08T05:17:57;4.38;;;3.97;;
74344;SDS011;62776;50.518;6.732;2023-07-08T05:20:52;4.43;;;4.03;;
74344;SDS011;62776;50.518;6.732;2023-07-08T05:23:39;4.63;;;4.28;;
74344;SDS011;62776;50.518;6.732;2023-07-08T05:26:26;4.43;;;4.03;;
74344;SDS011;62776;50.518;6.732;2023-07-08T05:29:18;6.68;;;4.65;;
74344;SDS011;62776;50.518;6.732;2023-07-08T05:32:06;5.30;;;4.25;;
74344;SDS011;62776;50.518;6.732;2023-07-08T05:34:54;4.53;;;4.13;;
74344;SDS011;62776;50.518;6.732;2023-07-08T05:37:42;3.97;;;3.67;;
74344;SDS011;62776;50.518;6.732;2023-07-08T05:40:32;4.30;;;3.90;;
74344;SDS011;62776;50.518;6.732;2023-07-08T05:43:20;4.15;;;3.83;;
74344;SDS011;62776;50.518;6.732;2023-07-08T05:46:07;4.43;;;4.03;;
74344;SDS011;62776;50.518;6.732;2023-07-08T05:48:55;4.20;;;3.83;;
74344;SDS011;62776;50.518;6.732;2023-07-08T05:51:43;4.20;;;3.80;;
74344;SDS011;62776;50.518;6.732;2023-07-08T05:54:30;3.85;;;3.53;;
74344;SDS011;62776;50.518;6.732;2023-07-08T05:57:16;4.80;;;4.40;;
74344;SDS011;62776;50.518;6.732;2023-07-08T06:00:06;4.03;;;3.72;;
74344;SDS011;62776;50.518;6.732;2023-07-08T06:02:55;4.40;;;4.00;;
74344;SDS011;62776;50.518;6.732;2023-07-08T06:05:45;4.70;;;3.90;;
74344;SDS011;62776;50.518;6.732;2023-07-08T06:08:33;4.38;;;3.97;;
74344;SDS011;62776;50.518;6.732;2023-07-08T06:11:20;9.05;;;4.80;;
74344;SDS011;62776;50.518;6.732;2023-07-08T06:14:10;4.03;;;3.63;;
74344;SDS011;62776;50.518;6.732;2023-07-08T06:17:00;6.22;;;3.88;;
74344;SDS011;62776;50.518;6.732;2023-07-08T06:19:48;4.22;;;3.83;;
74344;SDS011;62776;50.518;6.732;2023-07-08T06:22:34;4.20;;;3.90;;
74344;SDS011;62776;50.518;6.732;2023-07-08T06:25:21;4.30;;;3.90;;
74344;SDS011;62776;50.518;6.732;2023-07-08T06:28:14;4.22;;;3.80;;
74344;SDS011;62776;50.518;6.732;2023-07-08T06:31:02;4.13;;;3.63;;
74344;SDS011;62776;50.518;6.732;2023-07-08T06:33:50;3.88;;;3.47;;
74344;SDS011;62776;50.518;6.732;2023-07-08T06:36:39;4.30;;;3.90;;
74344;SDS011;62776;50.518;6.732;2023-07-08T06:39:28;4.35;;;3.55;;
74344;SDS011;62776;50.518;6.732;2023-07-08T06:42:18;4.55;;;3.95;;
74344;SDS011;62776;50.518;6.732;2023-07-08T06:45:04;3.92;;;3.53;;
74344;SDS011;62776;50.518;6.732;2023-07-08T06:47:52;3.80;;;3.40;;
74344;SDS011;62776;50.518;6.732;2023-07-08T06:50:38;4.28;;;3.72;;
74344;SDS011;62776;50.518;6.732;2023-07-08T06:53:27;4.07;;;3.67;;
74344;SDS011;62776;50.518;6.732;2023-07-08T06:56:17;3.78;;;3.28;;
74344;SDS011;62776;50.518;6.732;2023-07-08T06:59:04;4.45;;;3.25;;
74344;SDS011;62776;50.518;6.732;2023-07-08T07:01:51;3.65;;;3.35;;
74344;SDS011;62776;50.518;6.732;2023-07-08T07:04:37;5.22;;;3.17;;
74344;SDS011;62776;50.518;6.732;2023-07-08T07:07:36;3.45;;;3.15;;
74344;SDS011;62776;50.518;6.732;2023-07-08T07:10:25;6.60;;;3.33;;
74344;SDS011;62776;50.518;6.732;2023-07-08T07:13:12;3.60;;;2.88;;
74344;SDS011;62776;50.518;6.732;2023-07-08T07:16:01;3.50;;;3.20;;
74344;SDS011;62776;50.518;6.732;2023-07-08T07:18:47;5.07;;;3.25;;
74344;SDS011;62776;50.518;6.732;2023-07-08T07:21:35;3.28;;;2.97;;
74344;SDS011;62776;50.518;6.732;2023-07-08T07:24:21;4.75;;;3.03;;
74344;SDS011;62776;50.518;6.732;2023-07-08T07:27:11;3.63;;;3.00;;
74344;SDS011;62776;50.518;6.732;2023-07-08T07:29:57;4.10;;;3.10;;
74344;SDS011;62776;50.518;6.732;2023-07-08T07:32:44;3.55;;;3.13;;
74344;SDS011;62776;50.518;6.732;2023-07-08T07:35:41;3.58;;;3.05;;
74344;SDS011;62776;50.518;6.732;2023-07-08T07:38:32;3.38;;;2.97;;
74344;SDS011;62776;50.518;6.732;2023-07-08T07:41:21;4.25;;;3.30;;
74344;SDS011;62776;50.518;6.732;2023-07-08T07:44:14;3.10;;;2.70;;
74344;SDS011;62776;50.518;6.732;2023-07-08T07:47:02;2.92;;;2.63;;
74344;SDS011;62776;50.518;6.732;2023-07-08T07:49:50;3.42;;;2.65;;
74344;SDS011;62776;50.518;6.732;2023-07-08T07:52:38;4.65;;;3.10;;
74344;SDS011;62776;50.518;6.732;2023-07-08T07:55:25;3.30;;;2.70;;
74344;SDS011;62776;50.518;6.732;2023-07-08T07:58:13;3.03;;;2.65;;
74344;SDS011;62776;50.518;6.732;2023-07-08T08:00:59;4.57;;;2.95;;
74344;SDS011;62776;50.518;6.732;2023-07-08T08:03:48;4.20;;;3.10;;
74344;SDS011;62776;50.518;6.732;2023-07-08T08:06:44;4.25;;;3.00;;
74344;SDS011;62776;50.518;6.732;2023-07-08T08:09:30;5.50;;;3.70;;
74344;SDS011;62776;50.518;6.732;2023-07-08T08:12:16;4.25;;;2.60;;
74344;SDS011;62776;50.518;6.732;2023-07-08T08:15:03;2.80;;;2.60;;
74344;SDS011;62776;50.518;6.732;2023-07-08T08:17:51;3.22;;;2.92;;
74344;SDS011;62776;50.518;6.732;2023-07-08T08:20:38;2.80;;;2.50;;
74344;SDS011;62776;50.518;6.732;2023-07-08T08:23:26;5.25;;;2.85;;
74344;SDS011;62776;50.518;6.732;2023-07-08T08:26:13;2.88;;;2.58;;
74344;SDS011;62776;50.518;6.732;2023-07-08T08:29:02;4.30;;;2.45;;
74344;SDS011;62776;50.518;6.732;2023-07-08T08:31:49;3.75;;;2.88;;
74344;SDS011;62776;50.518;6.732;2023-07-08T08:34:37;4.10;;;3.20;;
74344;SDS011;62776;50.518;6.732;2023-07-08T08:37:24;5.75;;;3.90;;
74344;SDS011;62776;50.518;6.732;2023-07-08T08:40:13;4.07;;;2.97;;
74344;SDS011;62776;50.518;6.732;2023-07-08T08:43:10;3.47;;;2.78;;
74344;SDS011;62776;50.518;6.732;2023-07-08T08:46:04;5.70;;;3.10;;
74344;SDS011;62776;50.518;6.732;2023-07-08T08:52:17;5.07;;;3.42;;
74344;SDS011;62776;50.518;6.732;2023-07-08T08:55:07;3.30;;;3.00;;
74344;SDS011;62776;50.518;6.732;2023-07-08T09:01:08;4.03;;;2.72;;
74344;SDS011;62776;50.518;6.732;2023-07-08T09:07:13;4.22;;;3.25;;
74344;SDS011;62776;50.518;6.732;2023-07-08T09:10:15;3.72;;;3.38;;
74344;SDS011;62776;50.518;6.732;2023-07-08T09:19:35;3.30;;;3.00;;
74344;SDS011;62776;50.518;6.732;2023-07-08T09:22:34;4.13;;;3.30;;
74344;SDS011;62776;50.518;6.732;2023-07-08T09:25:34;3.45;;;3.15;;
74344;SDS011;62776;50.518;6.732;2023-07-08T09:28:37;5.78;;;3.10;;
74344;SDS011;62776;50.518;6.732;2023-07-08T09:31:29;4.70;;;3.03;;
74344;SDS011;62776;50.518;6.732;2023-07-08T09:34:21;4.38;;;3.38;;
74344;SDS011;62776;50.518;6.732;2023-07-08T09:37:27;3.47;;;2.95;;
74344;SDS011;62776;50.518;6.732;2023-07-08T09:40:45;3.47;;;2.95;;
74344;SDS011;62776;50.518;6.732;2023-07-08T09:43:46;4.32;;;3.45;;
74344;SDS011;62776;50.518;6.732;2023-07-08T09:46:36;5.38;;;3.17;;
74344;SDS011;62776;50.518;6.732;2023-07-08T09:49:31;3.75;;;3.42;;
74344;SDS011;62776;50.518;6.732;2023-07-08T09:52:20;6.05;;;3.30;;
74344;SDS011;62776;50.518;6.732;2023-07-08T09:55:10;3.85;;;3.33;;
74344;SDS011;62776;50.518;6.732;2023-07-08T09:57:58;3.72;;;3.42;;
74344;SDS011;62776;50.518;6.732;2023-07-08T10:00:49;5.32;;;3.38;;
74344;SDS011;62776;50.518;6.732;2023-07-08T10:03:39;3.35;;;3.05;;
74344;SDS011;62776;50.518;6.732;2023-07-08T10:06:28;3.20;;;2.90;;
74344;SDS011;62776;50.518;6.732;2023-07-08T10:09:23;3.45;;;3.15;;
74344;SDS011;62776;50.518;6.732;2023-07-08T10:12:11;5.53;;;2.97;;
74344;SDS011;62776;50.518;6.732;2023-07-08T10:15:03;3.85;;;2.95;;
74344;SDS011;62776;50.518;6.732;2023-07-08T10:18:10;3.13;;;2.83;;
74344;SDS011;62776;50.518;6.732;2023-07-08T10:27:40;3.35;;;3.05;;
74344;SDS011;62776;50.518;6.732;2023-07-08T10:30:31;3.42;;;3.13;;
74344;SDS011;62776;50.518;6.732;2023-07-08T10:33:48;4.55;;;3.15;;
74344;SDS011;62776;50.518;6.732;2023-07-08T10:49:24;9.60;;;3.33;;
74344;SDS011;62776;50.518;6.732;2023-07-08T10:55:46;3.88;;;3.58;;
74344;SDS011;62776;50.518;6.732;2023-07-08T11:02:00;3.55;;;3.25;;
74344;SDS011;62776;50.518;6.732;2023-07-08T11:05:19;3.63;;;3.33;;
74344;SDS011;62776;50.518;6.732;2023-07-08T11:08:27;3.92;;;3.20;;
74344;SDS011;62776;50.518;6.732;2023-07-08T11:11:27;4.05;;;3.42;;
74344;SDS011;62776;50.518;6.732;2023-07-08T11:15:43;3.45;;;3.15;;
74344;SDS011;62776;50.518;6.732;2023-07-08T11:21:51;7.63;;;3.67;;
74344;SDS011;62776;50.518;6.732;2023-07-08T11:24:48;4.00;;;3.08;;
74344;SDS011;62776;50.518;6.732;2023-07-08T11:27:37;4.00;;;3.53;;
74344;SDS011;62776;50.518;6.732;2023-07-08T11:30:32;3.35;;;3.08;;
74344;SDS011;62776;50.518;6.732;2023-07-08T11:33:21;3.85;;;3.17;;
74344;SDS011;62776;50.518;6.732;2023-07-08T11:36:10;3.92;;;3.47;;
74344;SDS011;62776;50.518;6.732;2023-07-08T11:39:02;6.50;;;3.40;;
74344;SDS011;62776;50.518;6.732;2023-07-08T11:45:37;5.25;;;3.58;;
74344;SDS011;62776;50.518;6.732;2023-07-08T11:48:29;3.60;;;3.30;;
74344;SDS011;62776;50.518;6.732;2023-07-08T11:51:28;4.35;;;3.53;;
74344;SDS011;62776;50.518;6.732;2023-07-08T11:54:33;4.88;;;3.25;;
74344;SDS011;62776;50.518;6.732;2023-07-08T11:57:25;3.67;;;3.38;;
74344;SDS011;62776;50.518;6.732;2023-07-08T12:00:25;4.93;;;3.03;;
74344;SDS011;62776;50.518;6.732;2023-07-08T12:03:22;2.95;;;2.75;;
74344;SDS011;62776;50.518;6.732;2023-07-08T12:09:27;3.20;;;2.90;;
74344;SDS011;62776;50.518;6.732;2023-07-08T12:12:24;4.15;;;2.90;;
74344;SDS011;62776;50.518;6.732;2023-07-08T12:15:28;3.92;;;3.00;;
74344;SDS011;62776;50.518;6.732;2023-07-08T12:18:17;4.60;;;3.20;;
74344;SDS011;62776;50.518;6.732;2023-07-08T12:21:17;4.70;;;3.43;;
74344;SDS011;62776;50.518;6.732;2023-07-08T12:24:05;3.92;;;3.40;;
74344;SDS011;62776;50.518;6.732;2023-07-08T12:26:54;5.38;;;3.22;;
74344;SDS011;62776;50.518;6.732;2023-07-08T12:29:43;3.55;;;3.25;;
74344;SDS011;62776;50.518;6.732;2023-07-08T12:32:44;3.55;;;3.17;;
74344;SDS011;62776;50.518;6.732;2023-07-08T12:35:32;5.75;;;3.75;;
74344;SDS011;62776;50.518;6.732;2023-07-08T12:38:22;3.22;;;2.92;;
74344;SDS011;62776;50.518;6.732;2023-07-08T12:41:23;3.65;;;3.35;;
74344;SDS011;62776;50.518;6.732;2023-07-08T12:44:23;3.40;;;3.07;;
74344;SDS011;62776;50.518;6.732;2023-07-08T12:47:12;4.65;;;3.40;;
74344;SDS011;62776;50.518;6.732;2023-07-08T12:49:58;3.33;;;3.03;;
74344;SDS011;62776;50.518;6.732;2023-07-08T12:52:50;3.97;;;3.20;;
74344;SDS011;62776;50.518;6.732;2023-07-08T12:55:37;3.47;;;2.92;;
74344;SDS011;62776;50.518;6.732;2023-07-08T12:58:27;3.00;;;2.70;;
74344;SDS011;62776;50.518;6.732;2023-07-08T13:01:21;3.25;;;2.88;;
74344;SDS011;62776;50.518;6.732;2023-07-08T13:04:12;4.75;;;2.83;;
74344;SDS011;62776;50.518;6.732;2023-07-08T13:07:00;4.95;;;3.30;;
74344;SDS011;62776;50.518;6.732;2023-07-08T13:09:47;5.45;;;2.70;;
74344;SDS011;62776;50.518;6.732;2023-07-08T13:12:37;3.22;;;2.92;;
74344;SDS011;62776;50.518;6.732;2023-07-08T13:15:30;4.32;;;2.33;;
74344;SDS011;62776;50.518;6.732;2023-07-08T13:18:31;2.90;;;2.50;;
74344;SDS011;62776;50.518;6.732;2023-07-08T13:21:23;3.33;;;3.00;;
74344;SDS011;62776;50.518;6.732;2023-07-08T13:24:12;4.18;;;2.70;;
74344;SDS011;62776;50.518;6.732;2023-07-08T13:26:59;3.40;;;2.70;;
74344;SDS011;62776;50.518;6.732;2023-07-08T13:29:46;5.65;;;2.85;;
74344;SDS011;62776;50.518;6.732;2023-07-08T13:32:34;3.20;;;2.53;;
74344;SDS011;62776;50.518;6.732;2023-07-08T13:38:25;7.28;;;2.70;;
74344;SDS011;62776;50.518;6.732;2023-07-08T13:41:19;3.20;;;2.85;;
74344;SDS011;62776;50.518;6.732;2023-07-08T13:44:10;2.92;;;2.60;;
74344;SDS011;62776;50.518;6.732;2023-07-08T13:46:57;3.63;;;2.92;;
74344;SDS011;62776;50.518;6.732;2023-07-08T13:49:54;5.18;;;2.90;;
74344;SDS011;62776;50.518;6.732;2023-07-08T13:52:58;4.00;;;2.75;;
74344;SDS011;62776;50.518;6.732;2023-07-08T13:55:45;4.00;;;3.60;;
74344;SDS011;62776;50.518;6.732;2023-07-08T13:58:42;3.63;;;2.58;;
74344;SDS011;62776;50.518;6.732;2023-07-08T14:01:39;3.03;;;2.58;;
74344;SDS011;62776;50.518;6.732;2023-07-08T14:04:30;4.43;;;3.00;;
74344;SDS011;62776;50.518;6.732;2023-07-08T14:07:20;2.85;;;2.60;;
74344;SDS011;62776;50.518;6.732;2023-07-08T14:10:12;3.15;;;2.85;;
74344;SDS011;62776;50.518;6.732;2023-07-08T14:13:00;3.65;;;2.90;;
74344;SDS011;62776;50.518;6.732;2023-07-08T14:15:47;2.75;;;2.47;;
74344;SDS011;62776;50.518;6.732;2023-07-08T14:18:33;4.35;;;2.95;;
74344;SDS011;62776;50.518;6.732;2023-07-08T14:21:21;2.95;;;2.45;;
74344;SDS011;62776;50.518;6.732;2023-07-08T14:24:12;5.30;;;2.72;;
74344;SDS011;62776;50.518;6.732;2023-07-08T14:27:00;3.00;;;2.67;;
74344;SDS011;62776;50.518;6.732;2023-07-08T14:29:56;3.30;;;2.60;;
74344;SDS011;62776;50.518;6.732;2023-07-08T14:32:43;4.28;;;2.67;;
74344;SDS011;62776;50.518;6.732;2023-07-08T14:35:32;3.67;;;2.85;;
74344;SDS011;62776;50.518;6.732;2023-07-08T14:38:19;6.45;;;3.00;;
74344;SDS011;62776;50.518;6.732;2023-07-08T14:41:11;3.55;;;2.42;;
74344;SDS011;62776;50.518;6.732;2023-07-08T14:43:59;4.55;;;2.20;;
74344;SDS011;62776;50.518;6.732;2023-07-08T14:46:55;2.65;;;2.22;;
74344;SDS011;62776;50.518;6.732;2023-07-08T14:49:43;3.30;;;2.85;;
74344;SDS011;62776;50.518;6.732;2023-07-08T14:52:34;4.13;;;2.38;;
74344;SDS011;62776;50.518;6.732;2023-07-08T14:55:20;4.28;;;2.65;;
74344;SDS011;62776;50.518;6.732;2023-07-08T14:58:06;3.88;;;2.50;;
74344;SDS011;62776;50.518;6.732;2023-07-08T15:00:55;4.13;;;2.80;;
74344;SDS011;62776;50.518;6.732;2023-07-08T15:03:45;3.17;;;2.88;;
74344;SDS011;62776;50.518;6.732;2023-07-08T15:06:33;3.65;;;2.58;;
74344;SDS011;62776;50.518;6.732;2023-07-08T15:09:19;2.75;;;2.38;;
74344;SDS011;62776;50.518;6.732;2023-07-08T15:12:14;8.52;;;2.72;;
74344;SDS011;62776;50.518;6.732;2023-07-08T15:15:01;3.92;;;2.85;;
74344;SDS011;62776;50.518;6.732;2023-07-08T15:17:48;3.05;;;2.75;;
74344;SDS011;62776;50.518;6.732;2023-07-08T15:20:38;3.15;;;2.83;;
74344;SDS011;62776;50.518;6.732;2023-07-08T15:23:27;2.90;;;2.63;;
74344;SDS011;62776;50.518;6.732;2023-07-08T15:26:13;3.22;;;2.80;;
74344;SDS011;62776;50.518;6.732;2023-07-08T15:29:00;3.20;;;2.67;;
74344;SDS011;62776;50.518;6.732;2023-07-08T15:31:47;3.75;;;2.83;;
74344;SDS011;62776;50.518;6.732;2023-07-08T15:34:34;3.03;;;2.78;;
74344;SDS011;62776;50.518;6.732;2023-07-08T15:37:23;3.90;;;2.60;;
74344;SDS011;62776;50.518;6.732;2023-07-08T15:40:15;6.13;;;3.25;;
74344;SDS011;62776;50.518;6.732;2023-07-08T15:43:03;3.97;;;3.08;;
74344;SDS011;62776;50.518;6.732;2023-07-08T15:46:01;5.03;;;2.80;;
74344;SDS011;62776;50.518;6.732;2023-07-08T15:48:48;3.30;;;2.63;;
74344;SDS011;62776;50.518;6.732;2023-07-08T15:51:41;3.00;;;2.70;;
74344;SDS011;62776;50.518;6.732;2023-07-08T15:54:29;5.18;;;3.05;;
74344;SDS011;62776;50.518;6.732;2023-07-08T15:57:18;6.07;;;3.00;;
74344;SDS011;62776;50.518;6.732;2023-07-08T16:00:33;5.28;;;3.05;;
74344;SDS011;62776;50.518;6.732;2023-07-08T16:03:26;3.88;;;2.80;;
74344;SDS011;62776;50.518;6.732;2023-07-08T16:06:14;4.90;;;2.60;;
74344;SDS011;62776;50.518;6.732;2023-07-08T16:09:03;3.70;;;2.67;;
74344;SDS011;62776;50.518;6.732;2023-07-08T16:11:55;6.60;;;3.13;;
74344;SDS011;62776;50.518;6.732;2023-07-08T16:14:41;3.42;;;2.90;;
74344;SDS011;62776;50.518;6.732;2023-07-08T16:17:30;3.17;;;2.65;;
74344;SDS011;62776;50.518;6.732;2023-07-08T16:20:22;6.38;;;2.83;;
74344;SDS011;62776;50.518;6.732;2023-07-08T16:23:10;2.83;;;2.60;;
74344;SDS011;62776;50.518;6.732;2023-07-08T16:25:56;3.15;;;2.70;;
74344;SDS011;62776;50.518;6.732;2023-07-08T16:28:43;5.35;;;2.88;;
74344;SDS011;62776;50.518;6.732;2023-07-08T16:31:32;5.55;;;2.80;;
74344;SDS011;62776;50.518;6.732;2023-07-08T16:34:18;2.90;;;2.70;;
74344;SDS011;62776;50.518;6.732;2023-07-08T16:37:04;4.20;;;3.22;;
74344;SDS011;62776;50.518;6.732;2023-07-08T16:39:55;3.53;;;3.22;;
74344;SDS011;62776;50.518;6.732;2023-07-08T16:42:43;5.55;;;3.40;;
74344;SDS011;62776;50.518;6.732;2023-07-08T16:45:32;2.97;;;2.67;;
74344;SDS011;62776;50.518;6.732;2023-07-08T16:48:18;3.63;;;2.53;;
74344;SDS011;62776;50.518;6.732;2023-07-08T16:51:08;3.80;;;3.05;;
74344;SDS011;62776;50.518;6.732;2023-07-08T16:54:11;2.85;;;2.22;;
74344;SDS011;62776;50.518;6.732;2023-07-08T16:57:02;3.40;;;2.60;;
74344;SDS011;62776;50.518;6.732;2023-07-08T16:59:49;5.22;;;2.50;;
74344;SDS011;62776;50.518;6.732;2023-07-08T17:02:35;3.20;;;2.65;;
74344;SDS011;62776;50.518;6.732;2023-07-08T17:05:24;3.80;;;3.13;;
74344;SDS011;62776;50.518;6.732;2023-07-08T17:08:16;3.42;;;2.97;;
74344;SDS011;62776;50.518;6.732;2023-07-08T17:11:03;4.35;;;2.80;;
74344;SDS011;62776;50.518;6.732;2023-07-08T17:13:49;6.13;;;3.45;;
74344;SDS011;62776;50.518;6.732;2023-07-08T17:16:36;5.18;;;3.13;;
74344;SDS011;62776;50.518;6.732;2023-07-08T17:19:33;7.10;;;3.25;;
74344;SDS011;62776;50.518;6.732;2023-07-08T17:22:21;5.55;;;3.30;;
74344;SDS011;62776;50.518;6.732;2023-07-08T17:25:15;3.25;;;2.80;;
74344;SDS011;62776;50.518;6.732;2023-07-08T17:28:03;3.40;;;3.10;;
74344;SDS011;62776;50.518;6.732;2023-07-08T17:30:51;3.83;;;3.30;;
74344;SDS011;62776;50.518;6.732;2023-07-08T17:33:40;4.07;;;3.67;;
74344;SDS011;62776;50.518;6.732;2023-07-08T17:36:33;4.65;;;3.30;;
74344;SDS011;62776;50.518;6.732;2023-07-08T17:39:22;6.82;;;2.75;;
74344;SDS011;62776;50.518;6.732;2023-07-08T17:42:08;6.03;;;3.20;;
74344;SDS011;62776;50.518;6.732;2023-07-08T17:44:54;4.80;;;3.40;;
74344;SDS011;62776;50.518;6.732;2023-07-08T17:47:41;4.10;;;3.40;;
74344;SDS011;62776;50.518;6.732;2023-07-08T17:50:27;3.88;;;2.92;;
74344;SDS011;62776;50.518;6.732;2023-07-08T17:53:15;4.05;;;3.58;;
74344;SDS011;62776;50.518;6.732;2023-07-08T17:56:02;3.67;;;3.28;;
74344;SDS011;62776;50.518;6.732;2023-07-08T17:58:50;4.18;;;3.55;;
74344;SDS011;62776;50.518;6.732;2023-07-08T18:01:38;6.50;;;3.40;;
74344;SDS011;62776;50.518;6.732;2023-07-08T18:04:28;6.28;;;3.67;;
74344;SDS011;62776;50.518;6.732;2023-07-08T18:07:24;5.60;;;3.10;;